Time;durP1;ratioP1;P1;durP2;ratioP2;P2;SDS_P1;SDS_P2;PMS_P1;PMS_P2;Temp;Humidity;BMP_temperature;BMP_pressure;BME280_temperature;BME280_humidity;BME280_pressure;Samples;Min_cycle;Max_cycle;Signal;HPM_P1;HPM_P2
2023/01/15 00:01:24;;;;;;;2.90;0.35;;;;;;;14.73;51.12;99827.63;5042081;28;20463;-67
2023/01/15 00:03:51;;;;;;;0.70;0.32;;;;;;;14.75;50.47;99830.97;5059689;28;20040;-66
2023/01/15 00:06:16;;;;;;;1.58;0.38;;;;;;;14.75;50.72;99831.81;5042273;28;20045;-66
2023/01/15 00:08:43;;;;;;;3.72;0.40;;;;;;;14.78;50.46;99817.13;5040994;28;20469;-66
2023/01/15 00:11:08;;;;;;;1.83;0.30;;;;;;;14.82;49.29;99815.75;5041008;28;20032;-66
2023/01/15 00:13:34;;;;;;;3.22;0.50;;;;;;;14.83;49.98;99807.47;5041032;28;20538;-66
2023/01/15 00:16:20;;;;;;;1.00;0.50;;;;;;;14.91;48.93;99820.88;5059158;28;20037;-66
2023/01/15 00:18:58;;;;;;;4.80;0.52;;;;;;;14.93;48.99;99812.63;5040950;28;20386;-66
2023/01/15 00:21:24;;;;;;;1.30;0.32;;;;;;;14.95;48.75;99808.72;5058602;28;20029;-66
2023/01/15 00:29:20;;;;;;;1.63;0.40;;;;;;;14.94;49.80;99808.91;5055488;28;20052;-66
2023/01/15 00:31:55;;;;;;;1.65;0.40;;;;;;;14.91;49.32;99788.53;5037688;28;20025;-65
2023/01/15 00:34:20;;;;;;;2.45;0.45;;;;;;;14.87;48.35;99783.69;5038313;28;20546;-65
2023/01/15 00:36:45;;;;;;;1.50;0.50;;;;;;;14.84;48.77;99784.91;5055175;28;20029;-65
2023/01/15 00:39:11;;;;;;;0.10;0.10;;;;;;;14.81;48.59;99770.94;5036568;28;20110;-65
2023/01/15 00:41:36;;;;;;;3.10;0.17;;;;;;;14.75;48.41;99771.66;5037417;28;20029;-66
2023/01/15 00:44:01;;;;;;;1.25;0.65;;;;;;;14.72;49.12;99782.81;5037415;28;20492;-65
2023/01/15 00:46:27;;;;;;;1.75;0.17;;;;;;;14.70;49.52;99774.91;5021718;28;20119;-65
2023/01/15 00:48:53;;;;;;;0.15;0.10;;;;;;;14.69;48.83;99780.47;5038916;28;20115;-66
2023/01/15 00:51:18;;;;;;;2.08;0.30;;;;;;;14.68;48.75;99776.13;5037531;28;20110;-66
2023/01/15 00:53:43;;;;;;;1.00;0.40;;;;;;;14.69;47.74;99785.84;5037704;28;20407;-65
2023/01/15 00:56:09;;;;;;;3.15;0.30;;;;;;;14.70;48.37;99787.53;5037608;28;20033;-65
2023/01/15 00:58:34;;;;;;;1.10;0.28;;;;;;;14.71;49.16;99786.53;5037122;28;20029;-66
2023/01/15 01:01:00;;;;;;;2.55;0.30;;;;;;;14.71;49.56;99797.31;5055235;28;20029;-65
2023/01/15 01:03:25;;;;;;;0.52;0.10;;;;;;;14.71;49.25;99787.38;5054726;28;20037;-65
2023/01/15 01:05:51;;;;;;;2.53;0.70;;;;;;;14.75;49.48;99804.00;5054885;28;20041;-65
2023/01/15 01:08:16;;;;;;;0.32;0.20;;;;;;;14.76;48.02;99813.78;5054883;28;20397;-65
2023/01/15 01:10:42;;;;;;;1.50;0.40;;;;;;;14.80;48.81;99809.69;5054947;28;20539;-65
2023/01/15 01:13:07;;;;;;;4.18;0.47;;;;;;;14.80;48.57;99813.22;5055383;28;20033;-66
2023/01/15 01:15:33;;;;;;;4.68;0.43;;;;;;;14.75;47.90;99804.00;5036927;28;20052;-65
2023/01/15 01:17:59;;;;;;;0.98;0.38;;;;;;;14.82;48.75;99821.16;5037279;28;20079;-65
2023/01/15 01:20:25;;;;;;;3.63;0.40;;;;;;;14.80;48.31;99807.84;5020290;28;20029;-65
2023/01/15 01:22:51;;;;;;;1.27;0.10;;;;;;;14.79;48.84;99799.94;5054679;28;20037;-65
2023/01/15 01:25:17;;;;;;;0.70;0.38;;;;;;;14.80;49.21;99802.44;5037308;28;20089;-65
2023/01/15 01:27:44;;;;;;;0.38;0.30;;;;;;;14.76;48.83;99789.53;5054272;28;20052;-65
2023/01/15 01:30:10;;;;;;;1.50;0.32;;;;;;;14.82;48.27;99807.69;5053484;28;20048;-65
2023/01/15 01:32:35;;;;;;;1.02;0.30;;;;;;;14.76;48.35;99801.16;5036414;28;20033;-65
2023/01/15 01:35:00;;;;;;;0.20;0.20;;;;;;;14.83;48.16;99814.72;5054211;28;20040;-65
2023/01/15 01:37:26;;;;;;;0.30;0.05;;;;;;;14.82;48.09;99804.97;5036567;28;20033;-65
2023/01/15 01:39:51;;;;;;;0.20;0.13;;;;;;;14.83;47.85;99812.88;5054640;28;20132;-65
2023/01/15 01:42:17;;;;;;;3.00;0.38;;;;;;;14.85;47.65;99810.00;5054116;28;20087;-65
2023/01/15 01:44:42;;;;;;;2.08;0.60;;;;;;;14.83;48.75;99817.41;5036443;28;20063;-65
2023/01/15 01:47:21;;;;;;;0.95;0.20;;;;;;;14.81;49.23;99820.31;5036384;28;20048;-65
2023/01/15 01:49:48;;;;;;;0.98;0.75;;;;;;;14.82;48.61;99829.25;5054079;28;20052;-65
2023/01/15 01:52:19;;;;;;;0.88;0.20;;;;;;;14.83;48.74;99829.03;5036773;28;20033;-65
2023/01/15 01:54:45;;;;;;;3.13;0.30;;;;;;;14.82;48.12;99822.00;5036139;28;20568;-65
2023/01/15 01:57:10;;;;;;;2.30;0.10;;;;;;;14.85;48.90;99828.88;5036282;28;20025;-66
2023/01/15 01:59:37;;;;;;;3.10;0.32;;;;;;;14.87;48.62;99834.91;5036318;28;20090;-65
2023/01/15 02:02:02;;;;;;;1.13;0.30;;;;;;;14.87;47.64;99837.63;5036053;28;20037;-65
2023/01/15 02:04:28;;;;;;;1.08;0.10;;;;;;;14.86;49.03;99833.22;5036048;28;20029;-65
2023/01/15 02:06:54;;;;;;;1.70;0.30;;;;;;;14.84;49.12;99824.50;5055817;28;20197;-66
2023/01/15 02:09:19;;;;;;;0.98;0.28;;;;;;;14.82;49.00;99818.47;5037408;28;20124;-65
2023/01/15 02:11:45;;;;;;;8.15;0.25;;;;;;;14.80;49.36;99823.16;5052707;28;20409;-66
2023/01/15 02:14:43;;;;;;;0.25;0.10;;;;;;;14.78;49.09;99819.81;5035911;28;20041;-65
2023/01/15 02:17:15;;;;;;;5.68;0.68;;;;;;;14.80;47.96;99817.78;5036157;28;20032;-65
2023/01/15 02:20:00;;;;;;;2.72;0.30;;;;;;;14.80;47.88;99818.63;5035437;28;20024;-65
2023/01/15 02:22:39;;;;;;;2.05;0.50;;;;;;;14.85;47.79;99807.31;5053124;28;20021;-66
2023/01/15 02:25:27;;;;;;;1.20;0.25;;;;;;;14.85;47.58;99800.03;5020212;28;20032;-65
2023/01/15 02:27:57;;;;;;;2.47;0.38;;;;;;;14.86;48.46;99796.31;5035698;28;20036;-65
2023/01/15 02:30:30;;;;;;;1.25;0.57;;;;;;;14.88;47.45;99782.69;5035550;28;20087;-65
2023/01/15 02:33:00;;;;;;;3.78;0.40;;;;;;;14.89;47.71;99784.34;5035516;28;20029;-65
2023/01/15 02:35:35;;;;;;;1.85;0.47;;;;;;;14.92;48.26;99789.38;5035413;28;20576;-65
2023/01/15 02:38:03;;;;;;;3.55;0.40;;;;;;;14.91;47.82;99779.59;5035375;28;20037;-65
2023/01/15 02:40:29;;;;;;;2.10;0.57;;;;;;;14.86;48.45;99776.63;5035666;28;20025;-65
2023/01/15 02:42:56;;;;;;;3.05;1.15;;;;;;;14.89;47.48;99789.72;5035441;28;20074;-65
2023/01/15 02:45:28;;;;;;;6.60;0.55;;;;;;;14.87;49.11;99800.72;5034727;28;20037;-66
2023/01/15 02:47:56;;;;;;;8.93;0.93;;;;;;;14.86;47.72;99804.41;5053118;28;20052;-65
2023/01/15 02:50:26;;;;;;;1.15;0.40;;;;;;;14.87;47.38;99799.88;5053021;28;20143;-66
2023/01/15 02:52:55;;;;;;;5.15;0.50;;;;;;;14.84;48.30;99798.38;5035179;28;20037;-65
2023/01/15 02:55:28;;;;;;;2.38;0.47;;;;;;;14.87;47.41;99789.09;5035458;28;20111;-65
2023/01/15 02:57:56;;;;;;;2.95;0.40;;;;;;;14.88;47.89;99793.47;5053148;28;20047;-65
2023/01/15 03:00:23;;;;;;;1.50;0.65;;;;;;;14.85;49.03;99789.25;5035183;28;20029;-65
2023/01/15 03:02:55;;;;;;;4.05;0.60;;;;;;;14.85;48.76;99785.75;5018340;28;20035;-66
2023/01/15 03:05:54;;;;;;;5.00;0.40;;;;;;;14.88;48.48;99780.00;5018496;28;20045;-65
2023/01/15 03:08:20;;;;;;;2.30;0.40;;;;;;;14.86;48.54;99782.00;5033125;28;20118;-66
2023/01/15 03:11:05;;;;;;;3.85;0.63;;;;;;;14.83;48.40;99776.97;5052820;28;20483;-65
2023/01/15 03:13:34;;;;;;;1.83;0.32;;;;;;;14.75;47.17;99777.06;5052778;28;20036;-65
2023/01/15 03:18:57;;;;;;;3.17;0.40;;;;;;;14.78;47.56;99771.28;5052748;28;20048;-66
2023/01/15 03:21:30;;;;;;;2.50;0.38;;;;;;;14.75;47.32;99771.66;5052546;28;20508;-65
2023/01/15 03:23:58;;;;;;;3.72;0.30;;;;;;;14.72;47.53;99782.81;5034664;28;20108;-65
2023/01/15 03:26:23;;;;;;;2.20;0.40;;;;;;;14.72;48.48;99782.81;5034802;28;20055;-65
2023/01/15 03:28:49;;;;;;;2.80;0.77;;;;;;;14.71;47.64;99800.00;5052481;28;20490;-66
2023/01/15 03:31:15;;;;;;;2.13;0.63;;;;;;;14.73;48.34;99789.88;5018923;28;20020;-65
2023/01/15 03:33:41;;;;;;;3.33;0.70;;;;;;;14.71;47.45;99789.22;5034799;28;20497;-66
2023/01/15 03:36:09;;;;;;;0.75;0.30;;;;;;;14.71;47.20;99775.75;5034641;28;20033;-65
2023/01/15 03:38:37;;;;;;;1.65;0.65;;;;;;;14.70;48.71;99792.94;5052343;28;20497;-65
2023/01/15 03:41:28;;;;;;;3.47;0.55;;;;;;;14.71;48.80;99791.94;5018517;28;20037;-65
2023/01/15 03:44:18;;;;;;;0.60;0.20;;;;;;;14.67;48.70;99786.06;5052320;28;20037;-65
2023/01/15 03:46:59;;;;;;;0.88;0.20;;;;;;;14.67;48.60;99790.59;5052541;28;20033;-65
2023/01/15 03:49:46;;;;;;;2.30;0.57;;;;;;;14.63;47.90;99781.22;5052533;28;20025;-65
2023/01/15 03:52:26;;;;;;;2.17;0.40;;;;;;;14.63;48.85;99802.78;5054177;28;20025;-65
2023/01/15 03:54:59;;;;;;;4.30;0.35;;;;;;;14.62;48.42;99798.41;5052986;28;20052;-65
2023/01/15 03:57:34;;;;;;;5.90;0.50;;;;;;;14.64;47.38;99780.19;5018237;28;20505;-65
2023/01/15 04:00:09;;;;;;;1.90;0.70;;;;;;;14.65;47.93;99782.72;5038461;28;20451;-66
2023/01/15 04:02:36;;;;;;;3.63;0.60;;;;;;;14.65;48.46;99792.66;5021940;28;20091;-66
2023/01/15 04:05:02;;;;;;;3.30;0.40;;;;;;;14.64;47.60;99791.81;5037121;28;20044;-65
2023/01/15 04:07:29;;;;;;;2.20;0.40;;;;;;;14.64;47.71;99796.34;5056315;28;20434;-66
2023/01/15 04:09:55;;;;;;;1.58;1.08;;;;;;;14.64;47.42;99801.75;5059688;28;20033;-66
2023/01/15 04:12:20;;;;;;;4.70;0.68;;;;;;;14.66;48.61;99788.91;5055683;28;20056;-65
2023/01/15 04:14:45;;;;;;;2.75;0.20;;;;;;;14.66;47.21;99786.22;5038102;28;20416;-65
2023/01/15 04:17:11;;;;;;;2.17;0.52;;;;;;;14.67;47.59;99790.59;5038068;28;20378;-65
2023/01/15 04:19:37;;;;;;;4.13;0.60;;;;;;;14.66;47.43;99784.38;5038087;28;20040;-65
2023/01/15 04:22:02;;;;;;;9.00;0.60;;;;;;;14.67;48.04;99801.38;5056075;28;20025;-65
2023/01/15 04:24:27;;;;;;;5.20;0.50;;;;;;;14.66;48.94;99789.75;5038151;28;20116;-65
2023/01/15 04:26:53;;;;;;;1.65;0.50;;;;;;;14.66;48.14;99788.91;5055646;28;20476;-66
2023/01/15 04:29:18;;;;;;;2.92;0.43;;;;;;;14.64;48.32;99796.34;5055330;28;20049;-65
2023/01/15 04:31:44;;;;;;;3.22;0.80;;;;;;;14.63;48.59;99783.91;5037896;28;20037;-66
2023/01/15 04:34:09;;;;;;;4.63;0.98;;;;;;;14.63;48.76;99784.72;5055846;28;20056;-65
2023/01/15 04:36:34;;;;;;;5.00;1.00;;;;;;;14.64;47.49;99782.88;5037436;28;20064;-65
2023/01/15 04:39:01;;;;;;;6.75;1.00;;;;;;;14.63;47.53;99787.41;5055277;28;20065;-65
2023/01/15 04:44:11;;;;;;;4.30;0.35;;;;;;;14.58;48.82;99798.75;5040213;28;20055;-65
2023/01/15 04:46:44;;;;;;;2.80;0.68;;;;;;;14.57;47.73;99802.44;5037522;28;20449;-65
2023/01/15 04:49:13;;;;;;;3.92;0.45;;;;;;;14.53;49.00;99801.16;5037728;28;20029;-66
2023/01/15 04:51:38;;;;;;;4.63;0.60;;;;;;;14.53;48.90;99800.31;5054936;28;20064;-65
2023/01/15 04:54:05;;;;;;;10.50;0.90;;;;;;;14.53;48.72;99800.31;5037331;28;20060;-65
2023/01/15 04:56:31;;;;;;;5.55;0.43;;;;;;;14.54;48.26;99802.00;5037392;28;20029;-65
2023/01/15 04:59:00;;;;;;;1.42;0.50;;;;;;;14.51;47.86;99796.97;5037563;28;20166;-65
2023/01/15 05:01:26;;;;;;;2.53;0.25;;;;;;;14.54;48.76;99802.81;5036987;28;20020;-65
2023/01/15 05:03:51;;;;;;;4.28;0.63;;;;;;;14.53;47.69;99803.84;5020927;28;20124;-66
2023/01/15 05:06:17;;;;;;;4.45;0.90;;;;;;;14.49;47.56;99794.44;5037001;28;20033;-65
2023/01/15 05:08:43;;;;;;;3.47;0.65;;;;;;;14.51;47.41;99795.13;5036619;28;20029;-65
2023/01/15 05:11:08;;;;;;;9.68;0.50;;;;;;;14.43;48.33;99784.38;5037144;28;20037;-65
2023/01/15 05:13:34;;;;;;;3.30;0.52;;;;;;;14.50;49.09;99806.06;5036975;28;20107;-66
2023/01/15 05:16:13;;;;;;;1.60;0.50;;;;;;;14.48;48.84;99808.94;5037468;28;20120;-65
2023/01/15 05:18:39;;;;;;;4.38;0.30;;;;;;;14.48;48.04;99800.03;5021261;28;20397;-65
2023/01/15 05:21:04;;;;;;;2.30;0.25;;;;;;;14.43;48.05;99787.06;5036620;28;20029;-65
2023/01/15 05:23:30;;;;;;;3.05;0.40;;;;;;;14.49;48.00;99794.44;5020271;28;20036;-65
2023/01/15 05:25:56;;;;;;;2.78;0.50;;;;;;;14.48;48.79;99784.69;5036785;28;20033;-65
2023/01/15 05:28:22;;;;;;;2.05;0.40;;;;;;;14.52;47.92;99796.78;5054146;28;20087;-65
2023/01/15 05:30:47;;;;;;;4.22;0.88;;;;;;;14.55;47.86;99787.47;5055113;28;20087;-65
2023/01/15 05:33:13;;;;;;;2.45;0.43;;;;;;;14.44;47.41;99775.28;5054413;28;20047;-65
2023/01/15 05:35:38;;;;;;;2.25;0.38;;;;;;;14.52;48.99;99786.00;5036236;28;20409;-65
2023/01/15 05:38:05;;;;;;;2.50;0.35;;;;;;;14.48;47.45;99795.47;5019832;28;20060;-65
2023/01/15 05:40:30;;;;;;;3.03;0.57;;;;;;;14.46;47.23;99789.41;5054159;28;20075;-64
2023/01/15 05:42:56;;;;;;;3.50;0.40;;;;;;;14.44;48.62;99801.38;5054514;28;20044;-65
2023/01/15 05:45:21;;;;;;;1.17;0.40;;;;;;;14.38;48.83;99808.31;5036295;28;20112;-65
2023/01/15 05:47:47;;;;;;;3.45;0.85;;;;;;;14.38;47.79;99805.63;5019631;28;20025;-65
2023/01/15 05:50:12;;;;;;;0.57;0.25;;;;;;;14.41;48.80;99802.56;5054048;28;20037;-64
2023/01/15 05:52:38;;;;;;;5.15;0.82;;;;;;;14.38;48.60;99786.75;5054085;28;20504;-65
2023/01/15 05:55:04;;;;;;;6.13;0.50;;;;;;;14.43;47.94;99805.94;5054168;28;20472;-65
2023/01/15 05:57:31;;;;;;;7.07;0.60;;;;;;;14.44;47.50;99812.16;5053902;28;20090;-65
2023/01/15 05:59:57;;;;;;;3.22;1.02;;;;;;;14.41;48.76;99805.28;5053986;28;20025;-65
2023/01/15 06:02:22;;;;;;;2.75;1.75;;;;;;;14.40;47.24;99813.53;5053848;28;20029;-65
2023/01/15 06:04:48;;;;;;;5.95;0.65;;;;;;;14.36;47.91;99810.38;5053830;28;20021;-65
2023/01/15 06:07:16;;;;;;;4.65;0.50;;;;;;;14.40;48.12;99821.63;5053958;28;20053;-65
2023/01/15 06:09:41;;;;;;;2.60;0.45;;;;;;;14.38;47.75;99819.09;5054386;28;20037;-65
2023/01/15 06:12:06;;;;;;;1.05;0.30;;;;;;;14.35;48.58;99824.84;5039965;28;20056;-65
2023/01/15 06:14:32;;;;;;;1.65;0.50;;;;;;;14.33;48.75;99826.88;5053932;28;20059;-65
2023/01/15 06:16:57;;;;;;;2.22;0.50;;;;;;;14.33;47.28;99813.41;5034805;28;20400;-65
2023/01/15 06:19:23;;;;;;;4.90;0.40;;;;;;;14.33;48.41;99826.88;5053490;28;20106;-66
2023/01/15 06:21:48;;;;;;;2.72;0.57;;;;;;;14.34;47.43;99833.13;5035406;28;20032;-66
2023/01/15 06:24:16;;;;;;;3.42;1.00;;;;;;;14.31;47.86;99842.38;5035415;28;20037;-65
2023/01/15 06:26:41;;;;;;;7.22;1.00;;;;;;;14.29;47.20;99841.69;5053423;28;20094;-64
2023/01/15 06:29:06;;;;;;;2.30;0.63;;;;;;;14.23;47.15;99841.56;5053077;28;20524;-65
2023/01/15 06:31:32;;;;;;;2.50;0.25;;;;;;;14.26;48.62;99833.13;5053170;28;20389;-65
2023/01/15 06:33:57;;;;;;;5.32;0.70;;;;;;;14.24;47.60;99832.44;5053734;28;20035;-65
2023/01/15 06:36:24;;;;;;;0.93;0.30;;;;;;;14.24;47.88;99830.59;5053165;28;20413;-65
2023/01/15 06:38:50;;;;;;;3.80;0.93;;;;;;;14.24;48.70;99833.28;5035317;28;20032;-65
2023/01/15 06:47:35;;;;;;;4.97;0.65;;;;;;;14.22;47.32;99840.72;5038154;28;20064;-65
2023/01/15 06:49:56;;;;;;;2.35;0.30;;;;;;;14.18;48.04;99830.50;5049280;28;20061;-65
2023/01/15 06:52:22;;;;;;;6.78;0.73;;;;;;;14.18;47.88;99839.38;5035196;28;20029;-65
2023/01/15 06:54:48;;;;;;;4.95;0.50;;;;;;;14.16;47.26;99841.41;5054002;28;20060;-65
2023/01/15 06:57:13;;;;;;;1.73;0.43;;;;;;;14.14;48.77;99840.78;5053567;28;20045;-65
2023/01/15 06:59:39;;;;;;;2.40;0.40;;;;;;;14.14;47.07;99837.22;5035196;28;20493;-65
2023/01/15 07:02:04;;;;;;;2.25;0.55;;;;;;;14.14;47.07;99851.53;5035382;28;20120;-65
2023/01/15 07:04:30;;;;;;;1.35;0.38;;;;;;;14.13;48.22;99847.16;5035071;28;20481;-65
2023/01/15 07:06:56;;;;;;;4.32;0.40;;;;;;;14.11;48.13;99854.59;5035543;28;20033;-65
2023/01/15 07:09:21;;;;;;;3.80;0.40;;;;;;;14.10;47.15;99863.66;5052717;28;20120;-65
2023/01/15 07:11:50;;;;;;;0.47;0.20;;;;;;;14.10;48.80;99869.06;5018583;28;20497;-65
2023/01/15 07:14:23;;;;;;;2.38;0.55;;;;;;;14.08;47.04;99868.41;5052881;28;20040;-65
2023/01/15 07:16:49;;;;;;;0.65;0.20;;;;;;;14.06;47.09;99883.91;5035043;28;20033;-65
2023/01/15 07:19:15;;;;;;;1.70;0.52;;;;;;;14.04;48.03;99888.63;5035433;28;20021;-65
2023/01/15 07:21:40;;;;;;;3.78;0.30;;;;;;;13.95;48.44;99870.81;5034791;28;20116;-65
2023/01/15 07:24:06;;;;;;;4.15;0.22;;;;;;;14.01;48.19;99883.59;5052647;28;20060;-66
2023/01/15 07:26:32;;;;;;;1.75;0.47;;;;;;;13.97;48.16;99880.41;5034999;28;20554;-65
2023/01/15 07:28:57;;;;;;;1.70;0.22;;;;;;;13.93;47.90;99883.63;5052247;28;20044;-65
2023/01/15 07:31:22;;;;;;;1.30;0.50;;;;;;;13.96;47.20;99894.00;5052399;28;20033;-65
2023/01/15 07:33:48;;;;;;;0.28;0.20;;;;;;;13.95;48.43;99898.59;5022376;28;20021;-65
2023/01/15 07:36:13;;;;;;;3.00;0.30;;;;;;;13.91;47.90;99897.25;5056599;28;20056;-65
2023/01/15 07:38:39;;;;;;;0.70;0.15;;;;;;;13.91;46.85;99893.69;5056652;28;20400;-65
2023/01/15 07:51:59;;;;;;;0.50;0.20;;;;;;;13.84;46.39;99916.97;5056756;28;20044;-65
2023/01/15 07:54:24;;;;;;;0.40;0.17;;;;;;;13.83;47.58;99915.25;5021990;28;20037;-65
2023/01/15 07:56:51;;;;;;;0.57;0.30;;;;;;;13.83;47.55;99923.34;5056405;28;20112;-65
2023/01/15 07:59:17;;;;;;;0.35;0.20;;;;;;;13.83;46.73;99926.03;5038588;28;20029;-65
2023/01/15 08:01:42;;;;;;;6.32;1.15;;;;;;;13.78;46.80;99918.47;5038148;28;20366;-65
2023/01/15 08:04:08;;;;;;;0.82;0.40;;;;;;;13.79;48.06;99930.91;5056572;28;20503;-65
2023/01/15 08:06:34;;;;;;;3.33;0.52;;;;;;;13.79;47.22;99930.09;5021925;28;20040;-65
2023/01/15 08:09:00;;;;;;;0.82;0.30;;;;;;;13.78;46.50;99933.78;5055904;28;20467;-65
2023/01/15 08:16:53;;;;;;;1.15;0.30;;;;;;;13.72;47.85;99945.22;5042939;28;20121;-65
2023/01/15 08:19:19;;;;;;;1.80;0.60;;;;;;;13.71;47.84;99955.16;5038852;28;20064;-65
2023/01/15 08:21:44;;;;;;;3.95;0.30;;;;;;;13.70;47.08;99934.66;5055774;28;20051;-65
2023/01/15 08:24:09;;;;;;;4.43;0.52;;;;;;;13.70;48.21;99944.56;5055349;28;20084;-65
2023/01/15 08:26:35;;;;;;;1.67;0.38;;;;;;;13.68;47.13;99949.28;5055984;28;20039;-66
2023/01/15 08:29:00;;;;;;;1.88;0.20;;;;;;;13.69;47.05;99961.72;5055285;28;20112;-66
2023/01/15 08:31:26;;;;;;;0.47;0.20;;;;;;;13.66;46.96;99957.53;5021197;28;20029;-66
2023/01/15 08:33:51;;;;;;;0.82;0.40;;;;;;;13.65;46.82;99963.09;5056114;28;20397;-65
2023/01/15 08:36:17;;;;;;;12.95;0.63;;;;;;;13.63;48.04;99962.41;5037698;28;20029;-65
2023/01/15 08:38:42;;;;;;;3.42;0.50;;;;;;;13.62;47.63;99953.50;5027433;28;20037;-65
2023/01/15 08:41:08;;;;;;;0.55;0.35;;;;;;;13.57;47.63;99946.97;5037584;28;20448;-65
2023/01/15 08:43:34;;;;;;;4.72;0.52;;;;;;;13.60;46.93;99941.22;5054514;28;20047;-65
2023/01/15 08:46:01;;;;;;;5.32;0.70;;;;;;;13.63;48.11;99967.78;5021330;28;20025;-66
2023/01/15 08:48:28;;;;;;;3.30;0.47;;;;;;;13.63;48.07;99957.00;5055125;28;20029;-65
2023/01/15 08:50:54;;;;;;;2.97;0.35;;;;;;;13.63;47.26;99954.31;5055187;28;20444;-66
2023/01/15 08:53:20;;;;;;;5.13;0.75;;;;;;;13.66;46.54;99959.38;5037122;28;20039;-65
2023/01/15 08:55:46;;;;;;;1.80;0.50;;;;;;;13.66;46.89;99954.84;5055462;28;20082;-65
2023/01/15 08:58:12;;;;;;;8.35;0.47;;;;;;;13.68;46.63;99949.28;5055592;28;20017;-66
2023/01/15 09:00:37;;;;;;;2.65;0.60;;;;;;;13.72;46.76;99962.22;5054973;28;20041;-65
2023/01/15 09:03:03;;;;;;;2.95;0.52;;;;;;;13.72;47.25;99940.69;5055024;28;20107;-65
2023/01/15 09:05:28;;;;;;;1.88;0.50;;;;;;;13.78;46.53;99940.03;5055133;28;20036;-65
2023/01/15 09:07:54;;;;;;;1.67;0.60;;;;;;;13.89;47.10;99930.72;5020323;28;20043;-65
2023/01/15 09:10:20;;;;;;;2.78;0.82;;;;;;;13.89;47.28;99919.97;5055134;28;20024;-65
2023/01/15 09:12:46;;;;;;;4.53;0.80;;;;;;;14.05;45.80;99930.69;5054676;28;20087;-65
2023/01/15 09:15:11;;;;;;;4.07;1.10;;;;;;;14.14;45.72;99931.50;5054697;28;20037;-65
2023/01/15 09:17:39;;;;;;;8.75;0.52;;;;;;;14.19;46.62;99935.34;5054637;28;20404;-65
2023/01/15 09:20:06;;;;;;;3.20;0.68;;;;;;;14.20;47.08;99938.88;5054714;28;20037;-65
2023/01/15 09:22:32;;;;;;;1.80;0.45;;;;;;;14.27;47.06;99929.91;5020448;28;20374;-65
2023/01/15 09:24:57;;;;;;;4.80;0.85;;;;;;;14.32;45.89;99929.44;5037207;28;20024;-65
2023/01/15 09:27:23;;;;;;;6.93;0.80;;;;;;;14.25;45.95;99910.41;5054327;28;20431;-65
2023/01/15 09:29:48;;;;;;;6.18;0.90;;;;;;;14.40;46.45;99924.00;5054355;28;20049;-65
2023/01/15 09:32:13;;;;;;;8.05;0.80;;;;;;;14.44;46.39;99923.47;5036742;28;20041;-65
2023/01/15 09:34:39;;;;;;;0.47;0.40;;;;;;;14.52;45.98;99928.81;5019866;28;20036;-65
2023/01/15 09:37:04;;;;;;;5.03;0.60;;;;;;;14.57;45.58;99914.84;5054918;28;20114;-66
2023/01/15 09:39:30;;;;;;;4.70;0.60;;;;;;;14.68;46.68;99932.44;5036007;28;20037;-65
2023/01/15 09:42:14;;;;;;;3.25;0.60;;;;;;;14.83;46.45;99928.81;5036428;28;20040;-66
2023/01/15 09:44:45;;;;;;;5.93;0.75;;;;;;;15.07;45.09;99941.28;5054079;28;20040;-65
2023/01/15 09:47:26;;;;;;;7.57;0.88;;;;;;;15.39;44.41;99927.53;5053525;28;20584;-65
2023/01/15 09:50:27;;;;;;;2.00;0.85;;;;;;;15.67;44.23;99942.16;5036386;28;20049;-66
2023/01/15 09:53:13;;;;;;;3.60;0.57;;;;;;;16.08;45.01;99939.84;5012330;28;20073;-65
2023/01/15 09:55:46;;;;;;;7.47;0.85;;;;;;;16.59;43.55;99943.47;4979669;28;20033;-65
2023/01/15 09:58:12;;;;;;;10.15;0.68;;;;;;;17.00;43.08;99948.31;4980069;28;20022;-65
2023/01/15 10:00:43;;;;;;;5.32;0.90;;;;;;;17.18;43.20;99948.69;4979593;28;20038;-65
2023/01/15 10:03:30;;;;;;;8.85;0.73;;;;;;;17.08;43.26;99953.59;4995760;28;20061;-66
2023/01/15 10:05:57;;;;;;;3.17;0.57;;;;;;;17.55;43.04;99956.59;5012143;28;20142;-65
2023/01/15 10:08:35;;;;;;;3.10;0.90;;;;;;;17.95;42.48;99936.06;4995753;28;20045;-66
2023/01/15 10:14:41;;;;;;;5.57;0.93;;;;;;;18.38;42.46;99953.81;5000433;28;20045;-66
2023/01/15 10:17:21;;;;;;;7.60;0.80;;;;;;;18.23;42.53;99944.16;4997646;28;20038;-66
2023/01/15 10:19:47;;;;;;;4.28;0.50;;;;;;;18.42;42.18;99948.84;4996141;28;20069;-66
2023/01/15 10:22:25;;;;;;;6.72;1.23;;;;;;;18.85;40.85;99958.41;5012726;28;20054;-66
2023/01/15 10:24:57;;;;;;;2.33;0.50;;;;;;;18.44;41.76;99947.59;4996177;28;20041;-66
2023/01/15 10:27:25;;;;;;;3.93;0.23;;;;;;;17.90;42.02;99963.72;5042745;28;20033;-65
2023/01/15 10:30:29;;;;;;;12.05;0.98;;;;;;;18.53;41.10;99959.97;5019365;28;20361;-66
2023/01/15 10:32:57;;;;;;;3.50;0.63;;;;;;;17.83;42.07;99973.69;5053968;28;20488;-65
2023/01/15 10:35:29;;;;;;;3.30;0.63;;;;;;;17.64;42.04;99970.81;5053687;28;20052;-66
2023/01/15 10:38:12;;;;;;;2.40;0.53;;;;;;;17.37;42.58;99973.25;5054899;28;20083;-66
2023/01/15 10:40:59;;;;;;;6.47;0.80;;;;;;;17.06;42.84;99967.31;5054365;28;20025;-66
2023/01/15 10:43:33;;;;;;;7.15;0.68;;;;;;;16.78;43.37;99980.72;5020113;28;20029;-65
2023/01/15 10:46:01;;;;;;;5.07;0.82;;;;;;;16.68;43.48;99985.59;5055260;28;20095;-66
2023/01/15 10:48:57;;;;;;;3.05;0.73;;;;;;;16.51;43.47;99973.28;5055103;28;20124;-66
2023/01/15 10:51:27;;;;;;;6.78;0.80;;;;;;;16.33;43.26;99980.13;5036820;28;20087;-66
2023/01/15 10:54:06;;;;;;;0.90;0.35;;;;;;;16.19;43.45;99988.03;5037378;28;20094;-66
2023/01/15 10:56:33;;;;;;;1.65;0.65;;;;;;;16.05;42.93;99972.63;5020832;28;20029;-65
2023/01/15 10:59:20;;;;;;;1.55;0.50;;;;;;;15.90;43.51;99985.31;5037535;28;20033;-65
2023/01/15 11:01:47;;;;;;;2.35;1.00;;;;;;;15.77;43.29;99974.31;5036910;28;20029;-66
2023/01/15 11:04:13;;;;;;;2.33;0.60;;;;;;;15.74;42.52;100002.47;5038190;28;20083;-66
2023/01/15 11:06:38;;;;;;;3.25;0.40;;;;;;;15.67;42.58;99987.19;5037120;28;20037;-66
2023/01/15 11:09:05;;;;;;;1.77;0.45;;;;;;;15.57;43.34;99978.53;5038333;28;20412;-65
2023/01/15 11:20:03;;;;;;;1.95;0.32;;;;;;;15.80;42.52;99978.50;5041518;28;20064;-66
2023/01/15 11:22:29;;;;;;;3.10;0.50;;;;;;;15.85;43.28;99967.97;5055843;28;20017;-66
2023/01/15 11:24:57;;;;;;;0.57;0.40;;;;;;;15.73;43.54;99967.56;5041369;28;20029;-66
2023/01/15 11:27:25;;;;;;;6.53;0.80;;;;;;;15.65;42.86;99957.69;5057610;28;20489;-68
2023/01/15 11:29:56;;;;;;;3.75;0.35;;;;;;;15.53;43.91;99956.44;5039174;28;20050;-66
2023/01/15 11:32:31;;;;;;;1.10;0.30;;;;;;;15.52;43.46;99938.56;5056481;28;20052;-65
2023/01/15 11:35:02;;;;;;;4.63;0.95;;;;;;;15.81;41.91;99958.53;5035055;28;20549;-66
2023/01/15 11:37:28;;;;;;;5.53;0.52;;;;;;;16.12;43.02;99937.63;5052538;28;20032;-65
2023/01/15 11:39:56;;;;;;;1.38;0.40;;;;;;;16.32;41.69;99936.03;5035262;28;20500;-65
2023/01/15 11:51:05;;;;;;;5.22;0.43;;;;;;;17.76;41.02;99943.00;5037310;28;20096;-66
2023/01/15 11:53:32;;;;;;;1.27;0.50;;;;;;;18.08;40.85;99929.88;5052473;28;20037;-66
2023/01/15 11:56:08;;;;;;;1.23;0.35;;;;;;;18.40;39.53;99938.16;5034812;28;20033;-66
2023/01/15 11:58:50;;;;;;;4.72;0.65;;;;;;;18.62;40.45;99936.19;5033418;28;20023;-65
2023/01/15 12:01:31;;;;;;;1.45;0.40;;;;;;;18.57;40.19;99934.09;5018578;28;20025;-66
2023/01/15 12:03:57;;;;;;;1.08;0.40;;;;;;;18.73;40.50;99943.78;5034449;28;20405;-66
2023/01/15 12:06:24;;;;;;;4.45;0.50;;;;;;;18.75;40.45;99949.00;5052347;28;20034;-65
2023/01/15 12:08:55;;;;;;;1.98;0.40;;;;;;;18.64;40.50;99936.84;5018048;28;20038;-66
2023/01/15 12:11:39;;;;;;;5.90;0.77;;;;;;;18.36;40.65;99930.66;5018052;28;20033;-66
2023/01/15 12:14:20;;;;;;;0.35;0.32;;;;;;;18.39;40.57;99943.81;5024782;28;20086;-66
2023/01/15 12:17:15;;;;;;;2.15;0.52;;;;;;;18.42;40.53;99932.56;5035461;28;20033;-65
2023/01/15 12:19:44;;;;;;;8.10;0.55;;;;;;;18.08;40.32;99922.56;5056637;28;20107;-66
2023/01/15 12:22:25;;;;;;;2.65;0.57;;;;;;;17.78;40.34;99930.06;5040015;28;20060;-66
2023/01/15 12:25:15;;;;;;;1.63;0.30;;;;;;;17.70;41.07;99927.53;5022035;28;20066;-66
2023/01/15 12:28:01;;;;;;;3.78;0.73;;;;;;;17.41;41.52;99927.69;5038138;28;20068;-65
2023/01/15 12:30:48;;;;;;;2.85;0.55;;;;;;;17.24;41.05;99945.22;5037418;28;20045;-65
2023/01/15 12:33:43;;;;;;;4.70;0.40;;;;;;;17.10;40.86;99936.13;5038178;28;20053;-65
2023/01/15 12:36:44;;;;;;;2.45;0.40;;;;;;;16.95;42.05;99942.63;5021431;28;20037;-65
2023/01/15 12:39:34;;;;;;;3.35;0.63;;;;;;;17.11;41.25;99931.56;5024342;28;20033;-64